Weather in selectable METAR weather stations

1) Select the Continent / Group:

[Europe]  [Asia]  [Africa]  [North America]  [South America]  
[Central America and Caribbean]  [Oceania]  [Antarctica]  
2) Select the Weather station (City):


METAR = YBAS 211830Z AUTO 13003KT 9999 // NCD 15/M08 Q1016 RF00.0/000.0

STATIONYBAS
NAMEAlice Springs Arpt, NT, AU
OBSERVED22.09.2020 04:00 (21.09.2020 18:30 UTC), 15 min ago
TEMPERATURE15.0°C ( 59°F)
WINDSE (130 degrees) at 3 MPH (3 knots; 1.5 m/s)
HUMIDITY20%
PRESSURE1015.9 hPa
Click here to search the weather station or to give the station identifier
(four-character ICAO Location Indicator) for weather data.